sensor_id;sensor_type;location;lat;lon;timestamp;P1;durP1;ratioP1;P2;durP2;ratioP2
42338;SDS011;27993;45.392;10.918;2022-11-15T00:00:12;31.17;;;19.97;;
42338;SDS011;27993;45.392;10.918;2022-11-15T00:02:43;26.60;;;16.60;;
42338;SDS011;27993;45.392;10.918;2022-11-15T00:05:13;27.77;;;16.53;;
42338;SDS011;27993;45.392;10.918;2022-11-15T00:07:44;28.43;;;17.23;;
42338;SDS011;27993;45.392;10.918;2022-11-15T00:10:15;27.00;;;16.97;;
42338;SDS011;27993;45.392;10.918;2022-11-15T00:12:46;28.43;;;17.07;;
42338;SDS011;27993;45.392;10.918;2022-11-15T00:15:16;31.60;;;17.07;;
42338;SDS011;27993;45.392;10.918;2022-11-15T00:17:50;24.10;;;16.20;;
42338;SDS011;27993;45.392;10.918;2022-11-15T00:20:23;24.92;;;15.45;;
42338;SDS011;27993;45.392;10.918;2022-11-15T00:22:54;24.80;;;15.23;;
42338;SDS011;27993;45.392;10.918;2022-11-15T00:25:25;31.50;;;15.13;;
42338;SDS011;27993;45.392;10.918;2022-11-15T00:27:57;24.55;;;15.43;;
42338;SDS011;27993;45.392;10.918;2022-11-15T00:30:28;27.17;;;16.08;;
42338;SDS011;27993;45.392;10.918;2022-11-15T00:33:05;25.57;;;15.57;;
42338;SDS011;27993;45.392;10.918;2022-11-15T00:35:36;25.67;;;15.32;;
42338;SDS011;27993;45.392;10.918;2022-11-15T00:38:06;22.80;;;15.17;;
42338;SDS011;27993;45.392;10.918;2022-11-15T00:40:37;32.33;;;15.97;;
42338;SDS011;27993;45.392;10.918;2022-11-15T00:43:08;22.70;;;15.50;;
42338;SDS011;27993;45.392;10.918;2022-11-15T00:45:38;31.73;;;15.97;;
42338;SDS011;27993;45.392;10.918;2022-11-15T00:48:09;25.03;;;15.23;;
42338;SDS011;27993;45.392;10.918;2022-11-15T00:50:40;22.90;;;13.97;;
42338;SDS011;27993;45.392;10.918;2022-11-15T00:53:10;28.60;;;15.80;;
42338;SDS011;27993;45.392;10.918;2022-11-15T00:55:41;24.63;;;14.97;;
42338;SDS011;27993;45.392;10.918;2022-11-15T00:58:12;24.23;;;14.00;;
42338;SDS011;27993;45.392;10.918;2022-11-15T01:04:10;24.48;;;14.93;;
42338;SDS011;27993;45.392;10.918;2022-11-15T01:06:41;24.90;;;14.47;;
42338;SDS011;27993;45.392;10.918;2022-11-15T01:09:11;23.63;;;14.87;;
42338;SDS011;27993;45.392;10.918;2022-11-15T01:11:43;23.02;;;13.52;;
42338;SDS011;27993;45.392;10.918;2022-11-15T01:14:14;21.97;;;13.70;;
42338;SDS011;27993;45.392;10.918;2022-11-15T01:16:44;35.00;;;15.10;;
42338;SDS011;27993;45.392;10.918;2022-11-15T01:19:15;28.17;;;16.27;;
42338;SDS011;27993;45.392;10.918;2022-11-15T01:21:48;25.93;;;16.40;;
42338;SDS011;27993;45.392;10.918;2022-11-15T01:24:20;25.20;;;16.37;;
42338;SDS011;27993;45.392;10.918;2022-11-15T01:26:50;23.57;;;15.83;;
42338;SDS011;27993;45.392;10.918;2022-11-15T01:29:21;29.00;;;17.00;;
42338;SDS011;27993;45.392;10.918;2022-11-15T01:31:52;25.10;;;16.53;;
42338;SDS011;27993;45.392;10.918;2022-11-15T01:34:23;24.77;;;16.12;;
42338;SDS011;27993;45.392;10.918;2022-11-15T01:36:54;26.67;;;16.17;;
42338;SDS011;27993;45.392;10.918;2022-11-15T01:39:25;28.53;;;17.60;;
42338;SDS011;27993;45.392;10.918;2022-11-15T01:41:56;25.20;;;15.02;;
42338;SDS011;27993;45.392;10.918;2022-11-15T01:44:38;31.37;;;15.37;;
42338;SDS011;27993;45.392;10.918;2022-11-15T01:47:13;26.52;;;14.18;;
42338;SDS011;27993;45.392;10.918;2022-11-15T01:50:07;28.42;;;14.87;;
42338;SDS011;27993;45.392;10.918;2022-11-15T01:52:41;22.35;;;13.57;;
42338;SDS011;27993;45.392;10.918;2022-11-15T01:55:14;25.75;;;15.35;;
42338;SDS011;27993;45.392;10.918;2022-11-15T01:57:50;21.50;;;13.93;;
42338;SDS011;27993;45.392;10.918;2022-11-15T02:00:23;24.30;;;14.93;;
42338;SDS011;27993;45.392;10.918;2022-11-15T02:02:54;24.97;;;13.80;;
42338;SDS011;27993;45.392;10.918;2022-11-15T02:05:25;21.33;;;13.43;;
42338;SDS011;27993;45.392;10.918;2022-11-15T02:07:55;21.77;;;12.77;;
42338;SDS011;27993;45.392;10.918;2022-11-15T02:10:29;22.83;;;13.20;;
42338;SDS011;27993;45.392;10.918;2022-11-15T02:13:00;32.37;;;13.53;;
42338;SDS011;27993;45.392;10.918;2022-11-15T02:15:34;23.17;;;14.60;;
42338;SDS011;27993;45.392;10.918;2022-11-15T02:18:14;24.40;;;12.60;;
42338;SDS011;27993;45.392;10.918;2022-11-15T02:24:17;18.80;;;12.60;;
42338;SDS011;27993;45.392;10.918;2022-11-15T02:41:09;40.12;;;14.50;;
42338;SDS011;27993;45.392;10.918;2022-11-15T02:43:57;25.52;;;14.73;;
42338;SDS011;27993;45.392;10.918;2022-11-15T02:49:46;22.65;;;14.45;;
42338;SDS011;27993;45.392;10.918;2022-11-15T02:52:20;27.83;;;14.77;;
42338;SDS011;27993;45.392;10.918;2022-11-15T02:54:55;20.55;;;13.52;;
42338;SDS011;27993;45.392;10.918;2022-11-15T03:00:21;25.48;;;13.30;;
42338;SDS011;27993;45.392;10.918;2022-11-15T03:10:56;14.18;;;9.90;;
42338;SDS011;27993;45.392;10.918;2022-11-15T03:13:47;13.18;;;9.15;;
42338;SDS011;27993;45.392;10.918;2022-11-15T03:16:24;22.35;;;10.90;;
42338;SDS011;27993;45.392;10.918;2022-11-15T03:21:39;20.33;;;11.33;;
42338;SDS011;27993;45.392;10.918;2022-11-15T03:24:10;16.20;;;10.32;;
42338;SDS011;27993;45.392;10.918;2022-11-15T03:26:44;20.23;;;12.15;;
42338;SDS011;27993;45.392;10.918;2022-11-15T03:29:20;21.20;;;12.25;;
42338;SDS011;27993;45.392;10.918;2022-11-15T03:31:56;28.83;;;14.07;;
42338;SDS011;27993;45.392;10.918;2022-11-15T03:34:39;24.58;;;12.98;;
42338;SDS011;27993;45.392;10.918;2022-11-15T03:37:20;20.48;;;12.73;;
42338;SDS011;27993;45.392;10.918;2022-11-15T03:39:53;24.12;;;14.38;;
42338;SDS011;27993;45.392;10.918;2022-11-15T03:42:32;17.93;;;11.23;;
42338;SDS011;27993;45.392;10.918;2022-11-15T03:45:21;15.25;;;10.35;;
42338;SDS011;27993;45.392;10.918;2022-11-15T03:48:10;17.05;;;10.82;;
42338;SDS011;27993;45.392;10.918;2022-11-15T03:50:46;27.37;;;11.63;;
42338;SDS011;27993;45.392;10.918;2022-11-15T03:53:17;18.55;;;11.25;;
42338;SDS011;27993;45.392;10.918;2022-11-15T03:55:47;18.03;;;10.97;;
42338;SDS011;27993;45.392;10.918;2022-11-15T03:58:18;22.77;;;11.50;;
42338;SDS011;27993;45.392;10.918;2022-11-15T04:00:49;30.20;;;12.07;;
42338;SDS011;27993;45.392;10.918;2022-11-15T04:03:19;22.10;;;11.47;;
42338;SDS011;27993;45.392;10.918;2022-11-15T04:05:50;16.43;;;10.23;;
42338;SDS011;27993;45.392;10.918;2022-11-15T04:08:21;17.57;;;9.90;;
42338;SDS011;27993;45.392;10.918;2022-11-15T04:10:51;19.33;;;10.48;;
42338;SDS011;27993;45.392;10.918;2022-11-15T04:13:22;14.30;;;10.02;;
42338;SDS011;27993;45.392;10.918;2022-11-15T04:15:52;21.47;;;11.17;;
42338;SDS011;27993;45.392;10.918;2022-11-15T04:18:23;20.33;;;9.63;;
42338;SDS011;27993;45.392;10.918;2022-11-15T04:20:54;18.60;;;11.25;;
42338;SDS011;27993;45.392;10.918;2022-11-15T04:23:43;18.05;;;10.38;;
42338;SDS011;27993;45.392;10.918;2022-11-15T04:26:37;18.20;;;9.73;;
42338;SDS011;27993;45.392;10.918;2022-11-15T04:29:07;15.97;;;11.13;;
42338;SDS011;27993;45.392;10.918;2022-11-15T04:32:13;16.42;;;10.18;;
42338;SDS011;27993;45.392;10.918;2022-11-15T04:34:44;16.73;;;10.80;;
42338;SDS011;27993;45.392;10.918;2022-11-15T04:37:14;13.90;;;9.02;;
42338;SDS011;27993;45.392;10.918;2022-11-15T04:39:46;17.87;;;10.32;;
42338;SDS011;27993;45.392;10.918;2022-11-15T04:42:16;15.10;;;8.00;;
42338;SDS011;27993;45.392;10.918;2022-11-15T04:44:47;13.07;;;7.50;;
42338;SDS011;27993;45.392;10.918;2022-11-15T04:47:17;15.00;;;9.02;;
42338;SDS011;27993;45.392;10.918;2022-11-15T04:49:48;14.87;;;8.93;;
42338;SDS011;27993;45.392;10.918;2022-11-15T04:52:19;23.33;;;10.33;;
42338;SDS011;27993;45.392;10.918;2022-11-15T04:54:50;15.55;;;9.95;;
42338;SDS011;27993;45.392;10.918;2022-11-15T04:57:20;24.27;;;10.43;;
42338;SDS011;27993;45.392;10.918;2022-11-15T04:59:51;28.85;;;9.30;;
42338;SDS011;27993;45.392;10.918;2022-11-15T05:02:21;16.20;;;9.03;;
42338;SDS011;27993;45.392;10.918;2022-11-15T05:04:52;12.50;;;7.93;;
42338;SDS011;27993;45.392;10.918;2022-11-15T05:07:23;15.57;;;10.05;;
42338;SDS011;27993;45.392;10.918;2022-11-15T05:09:53;14.57;;;9.00;;
42338;SDS011;27993;45.392;10.918;2022-11-15T05:12:24;15.50;;;8.90;;
42338;SDS011;27993;45.392;10.918;2022-11-15T05:14:54;15.45;;;9.95;;
42338;SDS011;27993;45.392;10.918;2022-11-15T05:17:25;17.30;;;9.20;;
42338;SDS011;27993;45.392;10.918;2022-11-15T05:19:56;28.33;;;10.32;;
42338;SDS011;27993;45.392;10.918;2022-11-15T05:22:26;22.08;;;10.60;;
42338;SDS011;27993;45.392;10.918;2022-11-15T05:24:57;18.63;;;10.13;;
42338;SDS011;27993;45.392;10.918;2022-11-15T05:27:28;15.05;;;9.32;;
42338;SDS011;27993;45.392;10.918;2022-11-15T05:29:58;12.63;;;8.83;;
42338;SDS011;27993;45.392;10.918;2022-11-15T05:32:29;14.63;;;10.07;;
42338;SDS011;27993;45.392;10.918;2022-11-15T05:34:59;17.97;;;9.97;;
42338;SDS011;27993;45.392;10.918;2022-11-15T05:37:30;36.30;;;17.83;;
42338;SDS011;27993;45.392;10.918;2022-11-15T05:40:01;38.33;;;17.23;;
42338;SDS011;27993;45.392;10.918;2022-11-15T05:42:32;35.63;;;16.73;;
42338;SDS011;27993;45.392;10.918;2022-11-15T05:45:04;32.70;;;14.90;;
42338;SDS011;27993;45.392;10.918;2022-11-15T05:47:36;26.98;;;13.85;;
42338;SDS011;27993;45.392;10.918;2022-11-15T05:50:11;21.65;;;13.43;;
42338;SDS011;27993;45.392;10.918;2022-11-15T05:52:44;24.20;;;13.75;;
42338;SDS011;27993;45.392;10.918;2022-11-15T05:55:16;34.40;;;15.90;;
42338;SDS011;27993;45.392;10.918;2022-11-15T05:57:46;25.40;;;14.47;;
42338;SDS011;27993;45.392;10.918;2022-11-15T06:00:17;22.70;;;14.23;;
42338;SDS011;27993;45.392;10.918;2022-11-15T06:02:48;30.57;;;15.03;;
42338;SDS011;27993;45.392;10.918;2022-11-15T06:05:18;25.80;;;14.98;;
42338;SDS011;27993;45.392;10.918;2022-11-15T06:07:49;39.97;;;13.67;;
42338;SDS011;27993;45.392;10.918;2022-11-15T06:10:20;23.10;;;13.85;;
42338;SDS011;27993;45.392;10.918;2022-11-15T06:13:00;21.63;;;13.67;;
42338;SDS011;27993;45.392;10.918;2022-11-15T06:15:32;39.55;;;16.23;;
42338;SDS011;27993;45.392;10.918;2022-11-15T06:18:06;28.40;;;17.42;;
42338;SDS011;27993;45.392;10.918;2022-11-15T06:20:37;52.10;;;20.05;;
42338;SDS011;27993;45.392;10.918;2022-11-15T06:23:07;47.00;;;20.05;;
42338;SDS011;27993;45.392;10.918;2022-11-15T06:25:38;419.45;;;55.17;;
42338;SDS011;27993;45.392;10.918;2022-11-15T06:28:09;227.43;;;39.53;;
42338;SDS011;27993;45.392;10.918;2022-11-15T06:30:39;64.65;;;24.95;;
42338;SDS011;27993;45.392;10.918;2022-11-15T06:33:10;61.15;;;21.95;;
42338;SDS011;27993;45.392;10.918;2022-11-15T06:35:41;63.10;;;23.40;;
42338;SDS011;27993;45.392;10.918;2022-11-15T06:38:11;50.08;;;20.58;;
42338;SDS011;27993;45.392;10.918;2022-11-15T06:40:42;51.33;;;20.23;;
42338;SDS011;27993;45.392;10.918;2022-11-15T06:43:13;57.90;;;21.30;;
42338;SDS011;27993;45.392;10.918;2022-11-15T06:45:44;39.67;;;19.55;;
42338;SDS011;27993;45.392;10.918;2022-11-15T06:48:15;44.13;;;19.42;;
42338;SDS011;27993;45.392;10.918;2022-11-15T06:50:52;35.25;;;20.02;;
42338;SDS011;27993;45.392;10.918;2022-11-15T06:53:24;45.47;;;18.83;;
42338;SDS011;27993;45.392;10.918;2022-11-15T06:55:58;33.30;;;17.73;;
42338;SDS011;27993;45.392;10.918;2022-11-15T06:58:33;35.30;;;17.40;;
42338;SDS011;27993;45.392;10.918;2022-11-15T07:01:05;33.33;;;17.13;;
42338;SDS011;27993;45.392;10.918;2022-11-15T07:03:41;49.10;;;18.55;;
42338;SDS011;27993;45.392;10.918;2022-11-15T07:06:12;31.37;;;16.65;;
42338;SDS011;27993;45.392;10.918;2022-11-15T07:08:43;34.58;;;18.98;;
42338;SDS011;27993;45.392;10.918;2022-11-15T07:11:13;35.63;;;19.17;;
42338;SDS011;27993;45.392;10.918;2022-11-15T07:13:44;33.15;;;19.42;;
42338;SDS011;27993;45.392;10.918;2022-11-15T07:16:15;35.70;;;19.65;;
42338;SDS011;27993;45.392;10.918;2022-11-15T07:18:45;30.27;;;17.57;;
42338;SDS011;27993;45.392;10.918;2022-11-15T07:21:16;37.53;;;18.05;;
42338;SDS011;27993;45.392;10.918;2022-11-15T07:23:46;33.42;;;18.20;;
42338;SDS011;27993;45.392;10.918;2022-11-15T07:26:17;27.57;;;16.77;;
42338;SDS011;27993;45.392;10.918;2022-11-15T07:28:48;39.77;;;18.97;;
42338;SDS011;27993;45.392;10.918;2022-11-15T07:31:18;35.42;;;17.50;;
42338;SDS011;27993;45.392;10.918;2022-11-15T07:33:49;36.53;;;18.73;;
42338;SDS011;27993;45.392;10.918;2022-11-15T07:36:19;35.90;;;17.97;;
42338;SDS011;27993;45.392;10.918;2022-11-15T07:38:50;29.80;;;17.23;;
42338;SDS011;27993;45.392;10.918;2022-11-15T07:41:21;28.92;;;17.30;;
42338;SDS011;27993;45.392;10.918;2022-11-15T07:43:51;36.77;;;17.90;;
42338;SDS011;27993;45.392;10.918;2022-11-15T07:46:22;39.07;;;20.10;;
42338;SDS011;27993;45.392;10.918;2022-11-15T07:48:53;37.13;;;20.00;;
42338;SDS011;27993;45.392;10.918;2022-11-15T07:51:24;36.43;;;19.07;;
42338;SDS011;27993;45.392;10.918;2022-11-15T07:53:54;35.50;;;19.07;;
42338;SDS011;27993;45.392;10.918;2022-11-15T07:56:25;36.07;;;18.83;;
42338;SDS011;27993;45.392;10.918;2022-11-15T07:58:55;36.90;;;19.17;;
42338;SDS011;27993;45.392;10.918;2022-11-15T08:01:27;28.52;;;16.00;;
42338;SDS011;27993;45.392;10.918;2022-11-15T08:03:58;25.47;;;16.27;;
42338;SDS011;27993;45.392;10.918;2022-11-15T08:06:28;30.10;;;18.10;;
42338;SDS011;27993;45.392;10.918;2022-11-15T08:09:00;32.13;;;17.10;;
42338;SDS011;27993;45.392;10.918;2022-11-15T08:11:30;33.40;;;18.63;;
42338;SDS011;27993;45.392;10.918;2022-11-15T08:14:01;29.83;;;17.70;;
42338;SDS011;27993;45.392;10.918;2022-11-15T08:16:31;28.33;;;15.10;;
42338;SDS011;27993;45.392;10.918;2022-11-15T08:19:02;29.77;;;17.63;;
42338;SDS011;27993;45.392;10.918;2022-11-15T08:21:33;26.83;;;15.57;;
42338;SDS011;27993;45.392;10.918;2022-11-15T08:24:03;34.33;;;17.80;;
42338;SDS011;27993;45.392;10.918;2022-11-15T08:26:34;27.27;;;16.50;;
42338;SDS011;27993;45.392;10.918;2022-11-15T08:29:05;24.70;;;16.47;;
42338;SDS011;27993;45.392;10.918;2022-11-15T08:31:38;33.40;;;18.50;;
42338;SDS011;27993;45.392;10.918;2022-11-15T08:34:09;34.87;;;17.80;;
42338;SDS011;27993;45.392;10.918;2022-11-15T08:36:39;31.48;;;17.98;;
42338;SDS011;27993;45.392;10.918;2022-11-15T08:39:10;33.23;;;17.93;;
42338;SDS011;27993;45.392;10.918;2022-11-15T08:41:42;42.42;;;20.45;;
42338;SDS011;27993;45.392;10.918;2022-11-15T08:46:45;30.73;;;16.08;;
42338;SDS011;27993;45.392;10.918;2022-11-15T08:49:16;35.53;;;18.65;;
42338;SDS011;27993;45.392;10.918;2022-11-15T08:51:47;34.33;;;17.53;;
42338;SDS011;27993;45.392;10.918;2022-11-15T08:54:17;39.17;;;17.83;;
42338;SDS011;27993;45.392;10.918;2022-11-15T08:56:51;33.25;;;17.65;;
42338;SDS011;27993;45.392;10.918;2022-11-15T08:59:22;45.43;;;19.37;;
42338;SDS011;27993;45.392;10.918;2022-11-15T09:01:52;39.13;;;20.73;;
42338;SDS011;27993;45.392;10.918;2022-11-15T09:04:26;41.43;;;19.63;;
42338;SDS011;27993;45.392;10.918;2022-11-15T09:06:57;41.47;;;19.02;;
42338;SDS011;27993;45.392;10.918;2022-11-15T09:09:28;41.27;;;21.83;;
42338;SDS011;27993;45.392;10.918;2022-11-15T09:11:58;47.13;;;21.13;;
42338;SDS011;27993;45.392;10.918;2022-11-15T09:14:29;48.13;;;23.47;;
42338;SDS011;27993;45.392;10.918;2022-11-15T09:17:00;49.23;;;21.80;;
42338;SDS011;27993;45.392;10.918;2022-11-15T09:19:31;46.20;;;21.77;;
42338;SDS011;27993;45.392;10.918;2022-11-15T09:22:01;43.83;;;22.13;;
42338;SDS011;27993;45.392;10.918;2022-11-15T09:24:36;55.78;;;21.40;;
42338;SDS011;27993;45.392;10.918;2022-11-15T09:27:06;43.07;;;21.47;;
42338;SDS011;27993;45.392;10.918;2022-11-15T09:29:37;44.50;;;21.63;;
42338;SDS011;27993;45.392;10.918;2022-11-15T09:32:08;56.10;;;22.93;;
42338;SDS011;27993;45.392;10.918;2022-11-15T09:34:39;43.05;;;22.23;;
42338;SDS011;27993;45.392;10.918;2022-11-15T09:37:09;46.43;;;21.90;;
42338;SDS011;27993;45.392;10.918;2022-11-15T09:39:40;44.17;;;20.03;;
42338;SDS011;27993;45.392;10.918;2022-11-15T09:45:34;32.55;;;18.58;;
42338;SDS011;27993;45.392;10.918;2022-11-15T09:53:47;39.25;;;19.27;;
42338;SDS011;27993;45.392;10.918;2022-11-15T09:56:32;32.75;;;17.25;;
42338;SDS011;27993;45.392;10.918;2022-11-15T10:04:37;35.67;;;18.55;;
42338;SDS011;27993;45.392;10.918;2022-11-15T10:09:56;31.55;;;19.25;;
42338;SDS011;27993;45.392;10.918;2022-11-15T10:12:50;29.75;;;17.75;;
42338;SDS011;27993;45.392;10.918;2022-11-15T10:15:22;37.63;;;20.25;;
42338;SDS011;27993;45.392;10.918;2022-11-15T10:20:46;27.85;;;17.75;;
42338;SDS011;27993;45.392;10.918;2022-11-15T10:23:19;33.50;;;19.08;;
42338;SDS011;27993;45.392;10.918;2022-11-15T10:25:53;35.38;;;19.50;;
42338;SDS011;27993;45.392;10.918;2022-11-15T10:28:28;27.02;;;17.55;;
42338;SDS011;27993;45.392;10.918;2022-11-15T10:31:00;33.67;;;18.45;;
42338;SDS011;27993;45.392;10.918;2022-11-15T10:33:32;40.08;;;18.80;;
42338;SDS011;27993;45.392;10.918;2022-11-15T10:38:54;30.50;;;18.05;;
42338;SDS011;27993;45.392;10.918;2022-11-15T10:49:29;30.00;;;19.13;;
42338;SDS011;27993;45.392;10.918;2022-11-15T10:52:17;34.08;;;19.60;;
42338;SDS011;27993;45.392;10.918;2022-11-15T10:57:38;39.70;;;20.08;;
42338;SDS011;27993;45.392;10.918;2022-11-15T11:08:02;30.30;;;18.12;;
42338;SDS011;27993;45.392;10.918;2022-11-15T11:10:41;30.27;;;18.67;;
42338;SDS011;27993;45.392;10.918;2022-11-15T11:13:27;30.90;;;18.75;;
42338;SDS011;27993;45.392;10.918;2022-11-15T11:16:15;27.58;;;19.55;;
42338;SDS011;27993;45.392;10.918;2022-11-15T11:24:20;34.33;;;19.62;;
42338;SDS011;27993;45.392;10.918;2022-11-15T11:41:00;35.03;;;20.20;;
42338;SDS011;27993;45.392;10.918;2022-11-15T11:43:36;38.38;;;21.60;;
42338;SDS011;27993;45.392;10.918;2022-11-15T11:49:04;31.92;;;20.25;;
42338;SDS011;27993;45.392;10.918;2022-11-15T11:51:47;37.92;;;21.87;;
42338;SDS011;27993;45.392;10.918;2022-11-15T11:54:25;35.67;;;21.87;;
42338;SDS011;27993;45.392;10.918;2022-11-15T12:00:28;34.08;;;21.80;;
42338;SDS011;27993;45.392;10.918;2022-11-15T12:05:48;41.85;;;22.42;;
42338;SDS011;27993;45.392;10.918;2022-11-15T12:13:59;38.60;;;22.37;;
42338;SDS011;27993;45.392;10.918;2022-11-15T12:16:33;34.30;;;21.55;;
42338;SDS011;27993;45.392;10.918;2022-11-15T12:19:04;33.03;;;19.87;;
42338;SDS011;27993;45.392;10.918;2022-11-15T12:21:53;40.17;;;20.63;;
42338;SDS011;27993;45.392;10.918;2022-11-15T12:30:07;32.15;;;20.35;;
42338;SDS011;27993;45.392;10.918;2022-11-15T12:35:38;35.00;;;19.05;;
42338;SDS011;27993;45.392;10.918;2022-11-15T12:38:12;32.30;;;19.37;;
42338;SDS011;27993;45.392;10.918;2022-11-15T12:41:13;34.40;;;21.25;;
42338;SDS011;27993;45.392;10.918;2022-11-15T12:43:45;35.53;;;21.85;;
42338;SDS011;27993;45.392;10.918;2022-11-15T12:47:21;33.05;;;20.62;;
42338;SDS011;27993;45.392;10.918;2022-11-15T12:59:54;34.95;;;20.50;;
42338;SDS011;27993;45.392;10.918;2022-11-15T13:02:38;32.65;;;21.17;;
42338;SDS011;27993;45.392;10.918;2022-11-15T13:07:56;43.72;;;20.65;;
42338;SDS011;27993;45.392;10.918;2022-11-15T13:10:34;28.92;;;19.70;;
42338;SDS011;27993;45.392;10.918;2022-11-15T13:13:08;31.58;;;19.33;;
42338;SDS011;27993;45.392;10.918;2022-11-15T13:15:51;32.88;;;19.65;;
42338;SDS011;27993;45.392;10.918;2022-11-15T13:18:33;32.92;;;20.60;;
42338;SDS011;27993;45.392;10.918;2022-11-15T13:21:22;37.80;;;19.50;;
42338;SDS011;27993;45.392;10.918;2022-11-15T13:24:13;29.40;;;19.75;;
42338;SDS011;27993;45.392;10.918;2022-11-15T13:26:46;30.02;;;19.30;;
42338;SDS011;27993;45.392;10.918;2022-11-15T13:29:17;45.97;;;21.70;;
42338;SDS011;27993;45.392;10.918;2022-11-15T13:31:50;35.40;;;21.10;;
42338;SDS011;27993;45.392;10.918;2022-11-15T13:34:33;39.33;;;21.00;;
42338;SDS011;27993;45.392;10.918;2022-11-15T13:37:09;33.85;;;20.00;;
42338;SDS011;27993;45.392;10.918;2022-11-15T13:39:52;31.25;;;19.37;;
42338;SDS011;27993;45.392;10.918;2022-11-15T13:42:22;32.67;;;20.60;;
42338;SDS011;27993;45.392;10.918;2022-11-15T13:44:59;30.42;;;19.77;;
42338;SDS011;27993;45.392;10.918;2022-11-15T13:47:31;30.00;;;17.90;;
42338;SDS011;27993;45.392;10.918;2022-11-15T13:50:02;31.70;;;19.27;;
42338;SDS011;27993;45.392;10.918;2022-11-15T13:52:34;27.05;;;16.58;;
42338;SDS011;27993;45.392;10.918;2022-11-15T13:55:11;34.42;;;17.33;;
42338;SDS011;27993;45.392;10.918;2022-11-15T13:57:48;23.87;;;15.73;;
42338;SDS011;27993;45.392;10.918;2022-11-15T14:06:07;24.33;;;13.90;;
42338;SDS011;27993;45.392;10.918;2022-11-15T14:08:59;25.48;;;15.23;;
42338;SDS011;27993;45.392;10.918;2022-11-15T14:11:52;24.98;;;15.07;;
42338;SDS011;27993;45.392;10.918;2022-11-15T14:14:24;27.00;;;15.23;;
42338;SDS011;27993;45.392;10.918;2022-11-15T14:16:57;27.17;;;17.45;;
42338;SDS011;27993;45.392;10.918;2022-11-15T14:24:42;31.08;;;17.50;;
42338;SDS011;27993;45.392;10.918;2022-11-15T14:27:33;27.83;;;16.87;;
42338;SDS011;27993;45.392;10.918;2022-11-15T14:30:04;31.02;;;17.98;;
42338;SDS011;27993;45.392;10.918;2022-11-15T14:35:14;31.27;;;18.02;;
42338;SDS011;27993;45.392;10.918;2022-11-15T14:37:47;27.30;;;17.15;;
42338;SDS011;27993;45.392;10.918;2022-11-15T14:40:19;24.08;;;15.15;;
42338;SDS011;27993;45.392;10.918;2022-11-15T14:42:51;31.80;;;18.27;;
42338;SDS011;27993;45.392;10.918;2022-11-15T14:45:21;28.70;;;15.77;;
42338;SDS011;27993;45.392;10.918;2022-11-15T14:47:52;26.00;;;15.50;;
42338;SDS011;27993;45.392;10.918;2022-11-15T14:50:23;29.00;;;16.33;;
42338;SDS011;27993;45.392;10.918;2022-11-15T14:52:53;29.07;;;17.43;;
42338;SDS011;27993;45.392;10.918;2022-11-15T14:55:28;28.03;;;17.73;;
42338;SDS011;27993;45.392;10.918;2022-11-15T14:58:02;31.50;;;18.45;;
42338;SDS011;27993;45.392;10.918;2022-11-15T15:00:35;39.47;;;21.65;;
42338;SDS011;27993;45.392;10.918;2022-11-15T15:03:09;32.63;;;18.30;;
42338;SDS011;27993;45.392;10.918;2022-11-15T15:05:42;29.43;;;19.17;;
42338;SDS011;27993;45.392;10.918;2022-11-15T15:08:13;28.10;;;16.55;;
42338;SDS011;27993;45.392;10.918;2022-11-15T15:10:44;27.40;;;17.77;;
42338;SDS011;27993;45.392;10.918;2022-11-15T15:15:53;28.27;;;16.12;;
42338;SDS011;27993;45.392;10.918;2022-11-15T15:18:27;23.97;;;16.70;;
42338;SDS011;27993;45.392;10.918;2022-11-15T15:20:58;32.65;;;18.27;;
42338;SDS011;27993;45.392;10.918;2022-11-15T15:23:32;28.87;;;19.70;;
42338;SDS011;27993;45.392;10.918;2022-11-15T15:26:06;37.42;;;19.20;;
42338;SDS011;27993;45.392;10.918;2022-11-15T15:28:41;31.80;;;19.75;;
42338;SDS011;27993;45.392;10.918;2022-11-15T15:31:11;25.62;;;17.08;;
42338;SDS011;27993;45.392;10.918;2022-11-15T15:33:42;33.60;;;17.37;;
42338;SDS011;27993;45.392;10.918;2022-11-15T15:36:14;38.50;;;20.35;;
42338;SDS011;27993;45.392;10.918;2022-11-15T15:38:47;39.40;;;18.23;;
42338;SDS011;27993;45.392;10.918;2022-11-15T15:41:18;25.77;;;18.27;;
42338;SDS011;27993;45.392;10.918;2022-11-15T15:43:49;35.13;;;16.87;;
42338;SDS011;27993;45.392;10.918;2022-11-15T15:46:19;33.93;;;18.97;;
42338;SDS011;27993;45.392;10.918;2022-11-15T15:48:50;33.67;;;20.03;;
42338;SDS011;27993;45.392;10.918;2022-11-15T15:51:21;32.37;;;22.33;;
42338;SDS011;27993;45.392;10.918;2022-11-15T15:53:51;30.07;;;20.80;;
42338;SDS011;27993;45.392;10.918;2022-11-15T15:56:26;34.00;;;20.80;;
42338;SDS011;27993;45.392;10.918;2022-11-15T15:58:58;32.75;;;20.80;;
42338;SDS011;27993;45.392;10.918;2022-11-15T16:01:28;30.33;;;20.30;;
42338;SDS011;27993;45.392;10.918;2022-11-15T16:03:59;39.73;;;20.97;;
42338;SDS011;27993;45.392;10.918;2022-11-15T16:09:15;34.67;;;22.70;;
42338;SDS011;27993;45.392;10.918;2022-11-15T16:11:47;37.15;;;23.20;;
42338;SDS011;27993;45.392;10.918;2022-11-15T16:14:18;35.80;;;19.93;;
42338;SDS011;27993;45.392;10.918;2022-11-15T16:16:48;37.50;;;19.83;;
42338;SDS011;27993;45.392;10.918;2022-11-15T16:19:19;32.73;;;20.83;;
42338;SDS011;27993;45.392;10.918;2022-11-15T16:21:49;31.57;;;18.47;;
42338;SDS011;27993;45.392;10.918;2022-11-15T16:24:21;31.95;;;18.95;;
42338;SDS011;27993;45.392;10.918;2022-11-15T16:26:55;31.98;;;19.70;;
42338;SDS011;27993;45.392;10.918;2022-11-15T16:29:26;32.27;;;18.93;;
42338;SDS011;27993;45.392;10.918;2022-11-15T16:31:56;32.50;;;19.23;;
42338;SDS011;27993;45.392;10.918;2022-11-15T16:34:27;32.60;;;20.30;;
42338;SDS011;27993;45.392;10.918;2022-11-15T16:36:57;32.97;;;20.57;;
42338;SDS011;27993;45.392;10.918;2022-11-15T16:39:29;45.17;;;21.90;;
42338;SDS011;27993;45.392;10.918;2022-11-15T16:42:00;222.00;;;38.20;;
42338;SDS011;27993;45.392;10.918;2022-11-15T16:44:32;259.85;;;38.95;;
42338;SDS011;27993;45.392;10.918;2022-11-15T16:47:03;510.33;;;60.43;;
42338;SDS011;27993;45.392;10.918;2022-11-15T16:49:33;190.17;;;35.07;;
42338;SDS011;27993;45.392;10.918;2022-11-15T16:52:04;176.00;;;35.93;;
42338;SDS011;27993;45.392;10.918;2022-11-15T16:54:35;71.53;;;25.43;;
42338;SDS011;27993;45.392;10.918;2022-11-15T16:57:07;71.95;;;24.45;;
42338;SDS011;27993;45.392;10.918;2022-11-15T16:59:39;28.02;;;19.37;;
42338;SDS011;27993;45.392;10.918;2022-11-15T17:02:13;46.90;;;19.63;;
42338;SDS011;27993;45.392;10.918;2022-11-15T17:04:44;39.22;;;17.95;;
42338;SDS011;27993;45.392;10.918;2022-11-15T17:07:15;35.35;;;19.08;;
42338;SDS011;27993;45.392;10.918;2022-11-15T17:09:46;35.67;;;21.47;;
42338;SDS011;27993;45.392;10.918;2022-11-15T17:12:16;34.03;;;20.17;;
42338;SDS011;27993;45.392;10.918;2022-11-15T17:14:47;35.80;;;21.00;;
42338;SDS011;27993;45.392;10.918;2022-11-15T17:17:17;41.53;;;22.47;;
42338;SDS011;27993;45.392;10.918;2022-11-15T17:19:48;34.67;;;18.90;;